EmailTwitter


Observations de surface / France / LFMP (07747)

Régions: Québec | Canada | États-Unis | Europe | France | UK | Ailleurs
Station
Affichage
Infos & localisation pour LFMP (07747) | Aide pour décoder les METARs

Observations prises le 2017-08-16 à 21H30 UTC à PERPIGNAN/RIVESA, FR (LFMP)

Température: 25.0 Celsius

Point de rosée: 18.0 Celsius

Humidité relative: 65%

Indice Humidex: 31.

Vents: Nord-ouest à 19 km/h ou 10 noeuds.

Pression au niveau moyen de la mer: 101.90 kilopascals.

Observation METAR:

LFMP 162130Z AUTO 31010KT 280V340 CAVOK 25/18 Q1019 TEMPO 30015G25KT=